Wetterdaten: Sonntag, 02.05.2010
Datum Zeit Temp. A. Feuchte A. Luftdruck Regen Wind Richtung Richtung Sonnenschein UV Solar Windben
02.05.2010 00:00 11,2 C 75 % 1010,1 hPa 0,0 mm 0,0 km/h (0 Bft) W 270 0 min 0 UV-I 0 W/m 1,6 km/h (1 Bft)
02.05.2010 00:10 11,2 C 75 % 1010,0 hPa 0,0 mm 0,0 km/h (0 Bft) W 270 0 min 0 UV-I 0 W/m 3,2 km/h (1 Bft)
02.05.2010 00:20 11,2 C 75 % 1010,0 hPa 0,0 mm 0,0 km/h (0 Bft) W 270 0 min 0 UV-I 0 W/m 1,6 km/h (1 Bft)
02.05.2010 00:30 11,1 C 75 % 1010,1 hPa 0,0 mm 0,0 km/h (0 Bft) W 270 0 min 0 UV-I 0 W/m 1,6 km/h (1 Bft)
02.05.2010 00:40 11,1 C 76 % 1010,2 hPa 0,0 mm 0,0 km/h (0 Bft) W 270 0 min 0 UV-I 0 W/m 1,6 km/h (1 Bft)
02.05.2010 00:50 11,0 C 76 % 1009,7 hPa 0,0 mm 0,0 km/h (0 Bft) W-NW 292 0 min 0 UV-I 0 W/m 3,2 km/h (1 Bft)
02.05.2010 01:00 10,8 C 76 % 1009,9 hPa 0,0 mm 0,0 km/h (0 Bft) W-NW 292 0 min 0 UV-I 0 W/m 1,6 km/h (1 Bft)
02.05.2010 01:10 10,8 C 77 % 1010,0 hPa 0,0 mm 0,0 km/h (0 Bft) N 0 0 min 0 UV-I 0 W/m 0,0 km/h (0 Bft)
02.05.2010 01:20 10,7 C 77 % 1010,0 hPa 0,0 mm 0,0 km/h (0 Bft) N 0 0 min 0 UV-I 0 W/m 0,0 km/h (0 Bft)
02.05.2010 01:30 10,4 C 78 % 1010,0 hPa 0,0 mm 0,0 km/h (0 Bft) N 0 0 min 0 UV-I 0 W/m 0,0 km/h (0 Bft)
02.05.2010 01:40 10,4 C 79 % 1009,9 hPa 0,0 mm 0,0 km/h (0 Bft) N 0 0 min 0 UV-I 0 W/m 0,0 km/h (0 Bft)
02.05.2010 01:50 10,2 C 80 % 1010,2 hPa 0,0 mm 0,0 km/h (0 Bft) N 0 0 min 0 UV-I 0 W/m 0,0 km/h (0 Bft)
02.05.2010 02:00 10,1 C 80 % 1010,4 hPa 0,0 mm 0,0 km/h (0 Bft) N 0 0 min 0 UV-I 0 W/m 0,0 km/h (0 Bft)
02.05.2010 02:10 10,0 C 80 % 1010,4 hPa 0,0 mm 0,0 km/h (0 Bft) N 0 0 min 0 UV-I 0 W/m 0,0 km/h (0 Bft)
02.05.2010 02:20 9,8 C 81 % 1010,3 hPa 0,0 mm 0,0 km/h (0 Bft) N 0 0 min 0 UV-I 0 W/m 0,0 km/h (0 Bft)
02.05.2010 02:30 9,8 C 81 % 1010,2 hPa 0,0 mm 0,0 km/h (0 Bft) N 0 0 min 0 UV-I 0 W/m 0,0 km/h (0 Bft)
02.05.2010 02:40 9,9 C 81 % 1010,2 hPa 0,0 mm 0,0 km/h (0 Bft) N 0 0 min 0 UV-I 0 W/m 0,0 km/h (0 Bft)
02.05.2010 02:50 9,9 C 81 % 1010,0 hPa 0,0 mm 0,0 km/h (0 Bft) N 0 0 min 0 UV-I 0 W/m 0,0 km/h (0 Bft)
02.05.2010 03:00 9,8 C 82 % 1010,0 hPa 0,0 mm 0,0 km/h (0 Bft) N 0 0 min 0 UV-I 0 W/m 0,0 km/h (0 Bft)
02.05.2010 03:10 9,9 C 83 % 1010,0 hPa 0,0 mm 0,0 km/h (0 Bft) N 0 0 min 0 UV-I 0 W/m 0,0 km/h (0 Bft)
02.05.2010 03:20 9,9 C 83 % 1009,9 hPa 0,0 mm 0,0 km/h (0 Bft) N 0 0 min 0 UV-I 0 W/m 0,0 km/h (0 Bft)
02.05.2010 03:30 9,8 C 84 % 1009,9 hPa 0,0 mm 0,0 km/h (0 Bft) N 0 0 min 0 UV-I 0 W/m 0,0 km/h (0 Bft)
02.05.2010 03:40 9,6 C 84 % 1010,0 hPa 0,0 mm 0,0 km/h (0 Bft) N 0 0 min 0 UV-I 0 W/m 0,0 km/h (0 Bft)
02.05.2010 03:50 9,6 C 85 % 1010,1 hPa 0,0 mm 0,0 km/h (0 Bft) N 0 0 min 0 UV-I 0 W/m 0,0 km/h (0 Bft)
02.05.2010 04:00 9,3 C 85 % 1010,1 hPa 0,0 mm 0,0 km/h (0 Bft) N 0 0 min 0 UV-I 0 W/m 0,0 km/h (0 Bft)
02.05.2010 04:10 9,1 C 86 % 1010,1 hPa 0,0 mm 0,0 km/h (0 Bft) N 0 0 min 0 UV-I 0 W/m 0,0 km/h (0 Bft)
02.05.2010 04:20 9,1 C 86 % 1010,1 hPa 0,0 mm 0,0 km/h (0 Bft) N 0 0 min 0 UV-I 0 W/m 0,0 km/h (0 Bft)
02.05.2010 04:30 9,1 C 86 % 1010,2 hPa 0,0 mm 0,0 km/h (0 Bft) N 0 0 min 0 UV-I 0 W/m 0,0 km/h (0 Bft)
02.05.2010 04:40 9,1 C 86 % 1010,1 hPa 0,0 mm 0,0 km/h (0 Bft) N 0 0 min 0 UV-I 0 W/m 0,0 km/h (0 Bft)
02.05.2010 04:50 8,9 C 86 % 1010,1 hPa 0,0 mm 0,0 km/h (0 Bft) N 0 0 min 0 UV-I 0 W/m 0,0 km/h (0 Bft)
02.05.2010 05:00 8,8 C 86 % 1010,0 hPa 0,0 mm 0,0 km/h (0 Bft) N 0 0 min 0 UV-I 0 W/m 0,0 km/h (0 Bft)
02.05.2010 05:10 8,6 C 86 % 1010,1 hPa 0,0 mm 0,0 km/h (0 Bft) N 0 0 min 0 UV-I 0 W/m 0,0 km/h (0 Bft)
02.05.2010 05:20 8,6 C 87 % 1010,0 hPa 0,0 mm 0,0 km/h (0 Bft) N 0 0 min 0 UV-I 0 W/m 0,0 km/h (0 Bft)
02.05.2010 05:30 8,8 C 87 % 1010,0 hPa 0,0 mm 0,0 km/h (0 Bft) N 0 0 min 0 UV-I 0 W/m 0,0 km/h (0 Bft)
02.05.2010 05:40 8,9 C 87 % 1009,8 hPa 0,0 mm 0,0 km/h (0 Bft) W-NW 292 0 min 0 UV-I 0 W/m 1,6 km/h (1 Bft)
02.05.2010 05:50 8,9 C 87 % 1009,6 hPa 0,0 mm 0,0 km/h (0 Bft) W-NW 292 0 min 0 UV-I 0 W/m 1,6 km/h (1 Bft)
02.05.2010 06:00 8,9 C 87 % 1009,5 hPa 0,0 mm 0,0 km/h (0 Bft) N 0 0 min 0 UV-I 0 W/m 0,0 km/h (0 Bft)
02.05.2010 06:10 8,9 C 87 % 1009,7 hPa 0,0 mm 0,0 km/h (0 Bft) W-NW 292 0 min 0 UV-I 5 W/m 1,6 km/h (1 Bft)
02.05.2010 06:20 8,8 C 87 % 1009,7 hPa 0,0 mm 0,0 km/h (0 Bft) W-NW 292 0 min 0 UV-I 11 W/m 1,6 km/h (1 Bft)
02.05.2010 06:30 8,8 C 87 % 1009,5 hPa 0,0 mm 0,0 km/h (0 Bft) W-NW 292 0 min 0 UV-I 23 W/m 1,6 km/h (1 Bft)
02.05.2010 06:40 8,8 C 87 % 1009,5 hPa 0,0 mm 0,0 km/h (0 Bft) W-NW 292 0 min 0 UV-I 44 W/m 1,6 km/h (1 Bft)
02.05.2010 06:50 8,8 C 87 % 1009,5 hPa 0,0 mm 0,0 km/h (0 Bft) W-NW 292 0 min 0 UV-I 54 W/m 3,2 km/h (1 Bft)
02.05.2010 07:00 9,1 C 87 % 1009,6 hPa 0,0 mm 0,0 km/h (0 Bft) W-NW 292 0 min 0 UV-I 53 W/m 3,2 km/h (1 Bft)
02.05.2010 07:10 9,2 C 87 % 1009,8 hPa 0,0 mm 0,0 km/h (0 Bft) W 270 0 min 0 UV-I 53 W/m 3,2 km/h (1 Bft)
02.05.2010 07:20 9,3 C 86 % 1009,8 hPa 0,0 mm 0,0 km/h (0 Bft) W 270 0 min 0 UV-I 44 W/m 1,6 km/h (1 Bft)
02.05.2010 07:30 9,4 C 86 % 1009,8 hPa 0,0 mm 0,0 km/h (0 Bft) W-NW 292 0 min 0 UV-I 56 W/m 4,8 km/h (1 Bft)
02.05.2010 07:40 9,5 C 85 % 1009,7 hPa 0,0 mm 0,0 km/h (0 Bft) NW 315 0 min 0 UV-I 76 W/m 1,6 km/h (1 Bft)
02.05.2010 07:50 9,7 C 85 % 1009,5 hPa 0,0 mm 0,0 km/h (0 Bft) O 90 0 min 1 UV-I 83 W/m 4,8 km/h (1 Bft)
02.05.2010 08:00 9,8 C 84 % 1009,1 hPa 0,0 mm 1,7 km/h (1 Bft) O-NO 59 0 min 1 UV-I 75 W/m 4,8 km/h (1 Bft)
02.05.2010 08:10 9,8 C 84 % 1009,2 hPa 0,0 mm 1,6 km/h (1 Bft) O-NO 67 0 min 1 UV-I 107 W/m 4,8 km/h (1 Bft)
02.05.2010 08:20 10,2 C 84 % 1009,1 hPa 0,0 mm 1,6 km/h (1 Bft) O-NO 67 0 min 1 UV-I 139 W/m 4,8 km/h (1 Bft)
02.05.2010 08:30 10,6 C 82 % 1009,1 hPa 0,0 mm 1,6 km/h (1 Bft) O 90 0 min 1 UV-I 186 W/m 6,4 km/h (2 Bft)
02.05.2010 08:40 10,9 C 81 % 1009,0 hPa 0,0 mm 1,6 km/h (1 Bft) O 90 10 min 1 UV-I 295 W/m 8,0 km/h (2 Bft)
02.05.2010 08:50 11,8 C 77 % 1008,8 hPa 0,0 mm 4,8 km/h (1 Bft) O 90 10 min 1 UV-I 381 W/m 11,3 km/h (2 Bft)
02.05.2010 09:00 12,3 C 76 % 1008,7 hPa 0,0 mm 4,8 km/h (1 Bft) O 90 10 min 1 UV-I 424 W/m 11,3 km/h (2 Bft)
02.05.2010 09:10 12,2 C 76 % 1008,5 hPa 0,0 mm 3,2 km/h (1 Bft) O 90 0 min 1 UV-I 227 W/m 11,3 km/h (2 Bft)
02.05.2010 09:20 12,2 C 76 % 1008,3 hPa 0,0 mm 4,8 km/h (1 Bft) O 90 0 min 1 UV-I 207 W/m 11,3 km/h (2 Bft)
02.05.2010 09:30 12,2 C 77 % 1008,6 hPa 0,0 mm 4,8 km/h (1 Bft) O 90 10 min 2 UV-I 338 W/m 16,1 km/h (3 Bft)
02.05.2010 09:40 12,7 C 74 % 1009,0 hPa 0,0 mm 4,8 km/h (1 Bft) O-SO 112 10 min 2 UV-I 338 W/m 11,3 km/h (2 Bft)
02.05.2010 09:50 12,9 C 74 % 1009,2 hPa 0,0 mm 4,8 km/h (1 Bft) O 90 10 min 2 UV-I 348 W/m 16,1 km/h (3 Bft)
02.05.2010 10:00 13,0 C 73 % 1009,2 hPa 0,0 mm 4,8 km/h (1 Bft) O-SO 112 10 min 2 UV-I 538 W/m 14,5 km/h (3 Bft)
02.05.2010 10:10 13,6 C 72 % 1009,4 hPa 0,0 mm 4,8 km/h (1 Bft) O 90 10 min 2 UV-I 387 W/m 14,5 km/h (3 Bft)
02.05.2010 10:20 13,3 C 72 % 1009,6 hPa 0,0 mm 6,4 km/h (2 Bft) O 90 10 min 2 UV-I 350 W/m 17,7 km/h (3 Bft)
02.05.2010 10:30 13,4 C 72 % 1009,6 hPa 0,0 mm 4,8 km/h (1 Bft) O-SO 112 0 min 2 UV-I 304 W/m 11,3 km/h (2 Bft)
02.05.2010 10:40 13,3 C 72 % 1009,6 hPa 0,0 mm 4,8 km/h (1 Bft) O-SO 112 0 min 2 UV-I 308 W/m 11,3 km/h (2 Bft)
02.05.2010 10:50 13,2 C 72 % 1009,7 hPa 0,0 mm 3,2 km/h (1 Bft) O 90 0 min 2 UV-I 220 W/m 9,7 km/h (2 Bft)
02.05.2010 11:00 13,3 C 73 % 1009,5 hPa 0,0 mm 4,8 km/h (1 Bft) O-SO 112 0 min 2 UV-I 274 W/m 12,9 km/h (3 Bft)
02.05.2010 11:10 13,5 C 71 % 1009,3 hPa 0,0 mm 3,2 km/h (1 Bft) O-SO 112 0 min 2 UV-I 295 W/m 9,7 km/h (2 Bft)
02.05.2010 11:20 13,7 C 71 % 1009,2 hPa 0,0 mm 4,8 km/h (1 Bft) O 90 0 min 2 UV-I 380 W/m 12,9 km/h (3 Bft)
02.05.2010 11:30 13,9 C 70 % 1008,3 hPa 0,0 mm 4,8 km/h (1 Bft) O-NO 67 0 min 3 UV-I 383 W/m 11,3 km/h (2 Bft)
02.05.2010 11:40 14,2 C 69 % 1009,2 hPa 0,0 mm 4,8 km/h (1 Bft) O 90 10 min 3 UV-I 438 W/m 14,5 km/h (3 Bft)
02.05.2010 11:50 14,4 C 68 % 1008,6 hPa 0,0 mm 4,8 km/h (1 Bft) O 90 10 min 3 UV-I 533 W/m 14,5 km/h (3 Bft)
02.05.2010 12:00 14,3 C 69 % 1009,4 hPa 0,0 mm 6,4 km/h (2 Bft) O 90 10 min 3 UV-I 427 W/m 19,3 km/h (3 Bft)
02.05.2010 12:10 14,7 C 68 % 1005,4 hPa 0,0 mm 6,4 km/h (2 Bft) O 90 10 min 5 UV-I 847 W/m 16,1 km/h (3 Bft)
02.05.2010 12:20 15,7 C 67 % 1007,8 hPa 0,0 mm 6,4 km/h (2 Bft) O 90 10 min 5 UV-I 896 W/m 19,3 km/h (3 Bft)
02.05.2010 12:30 16,2 C 63 % 1006,8 hPa 0,0 mm 6,4 km/h (2 Bft) O 90 10 min 6 UV-I 1114 W/m 11,3 km/h (2 Bft)
02.05.2010 12:40 16,3 C 65 % 1006,2 hPa 0,0 mm 4,8 km/h (1 Bft) O-SO 112 10 min 5 UV-I 548 W/m 9,7 km/h (2 Bft)
02.05.2010 12:50 16,1 C 64 % 1007,7 hPa 0,0 mm 6,6 km/h (2 Bft) O 82 10 min 4 UV-I 438 W/m 17,7 km/h (3 Bft)
02.05.2010 13:00 16,6 C 64 % 1007,7 hPa 0,0 mm 6,0 km/h (2 Bft) SO 124 10 min 5 UV-I 702 W/m 19,3 km/h (3 Bft)
02.05.2010 13:10 17,3 C 62 % 1007,7 hPa 0,0 mm 5,9 km/h (2 Bft) O 101 10 min 4 UV-I 688 W/m 14,5 km/h (3 Bft)
02.05.2010 13:20 16,9 C 62 % 1002,1 hPa 0,0 mm 6,4 km/h (2 Bft) O-SO 112 10 min 3 UV-I 450 W/m 16,1 km/h (3 Bft)
02.05.2010 13:30 16,4 C 62 % 1002,1 hPa 0,0 mm 4,8 km/h (1 Bft) O 90 0 min 3 UV-I 362 W/m 17,7 km/h (3 Bft)
02.05.2010 13:40 16,3 C 62 % 1006,8 hPa 0,0 mm 6,4 km/h (2 Bft) O 90 10 min 3 UV-I 485 W/m 19,3 km/h (3 Bft)
02.05.2010 13:50 16,2 C 64 % 999,6 hPa 0,0 mm 4,8 km/h (1 Bft) O 90 0 min 3 UV-I 332 W/m 11,3 km/h (2 Bft)
02.05.2010 14:00 15,9 C 63 % 1007,9 hPa 0,0 mm 4,8 km/h (1 Bft) O 90 0 min 2 UV-I 221 W/m 16,1 km/h (3 Bft)
02.05.2010 14:10 15,5 C 65 % 1001,3 hPa 0,0 mm 4,8 km/h (1 Bft) O 90 0 min 1 UV-I 162 W/m 11,3 km/h (2 Bft)
02.05.2010 14:20 15,0 C 72 % 1005,9 hPa 0,0 mm 3,2 km/h (1 Bft) O 90 0 min 1 UV-I 63 W/m 9,7 km/h (2 Bft)
02.05.2010 14:30 13,9 C 75 % 1005,9 hPa 0,5 mm 6,4 km/h (2 Bft) W-SW 247 0 min 0 UV-I 25 W/m 32,2 km/h (5 Bft)
02.05.2010 14:40 11,8 C 83 % 1006,2 hPa 1,3 mm 4,8 km/h (1 Bft) W-SW 247 0 min 1 UV-I 56 W/m 11,3 km/h (2 Bft)
02.05.2010 14:50 11,4 C 89 % 1006,2 hPa 2,5 mm 4,8 km/h (1 Bft) O 90 0 min 3 UV-I 306 W/m 9,7 km/h (2 Bft)
02.05.2010 15:00 12,0 C 88 % 1006,8 hPa 0,0 mm 3,2 km/h (1 Bft) W-NW 292 10 min 5 UV-I 935 W/m 11,3 km/h (2 Bft)
02.05.2010 15:10 12,5 C 89 % 1007,0 hPa 0,0 mm 1,6 km/h (1 Bft) NW 315 10 min 3 UV-I 519 W/m 6,4 km/h (2 Bft)
02.05.2010 15:20 12,7 C 86 % 1007,2 hPa 0,0 mm 1,6 km/h (1 Bft) N-NW 337 0 min 2 UV-I 262 W/m 4,8 km/h (1 Bft)
02.05.2010 15:30 12,4 C 86 % 1007,3 hPa 0,0 mm 1,6 km/h (1 Bft) N-NW 337 0 min 2 UV-I 204 W/m 8,0 km/h (2 Bft)
02.05.2010 15:40 12,5 C 87 % 1007,4 hPa 0,0 mm 4,8 km/h (1 Bft) N 360 0 min 1 UV-I 207 W/m 8,0 km/h (2 Bft)
02.05.2010 15:50 12,4 C 87 % 1007,5 hPa 0,0 mm 3,2 km/h (1 Bft) N-NO 22 0 min 1 UV-I 171 W/m 9,7 km/h (2 Bft)
02.05.2010 16:00 12,4 C 87 % 1007,6 hPa 0,0 mm 1,6 km/h (1 Bft) N 360 0 min 1 UV-I 105 W/m 6,4 km/h (2 Bft)
02.05.2010 16:10 12,3 C 89 % 1007,6 hPa 0,0 mm 1,6 km/h (1 Bft) N 360 0 min 1 UV-I 95 W/m 6,4 km/h (2 Bft)
02.05.2010 16:20 12,4 C 89 % 1007,2 hPa 0,0 mm 1,6 km/h (1 Bft) N 360 0 min 1 UV-I 91 W/m 8,0 km/h (2 Bft)
02.05.2010 16:30 12,4 C 89 % 1006,8 hPa 0,5 mm 1,6 km/h (1 Bft) N-NO 22 0 min 0 UV-I 47 W/m 6,4 km/h (2 Bft)
02.05.2010 16:40 12,3 C 90 % 1006,6 hPa 1,5 mm 3,2 km/h (1 Bft) W 270 0 min 0 UV-I 12 W/m 6,4 km/h (2 Bft)
02.05.2010 16:50 12,0 C 87 % 1006,2 hPa 2,3 mm 4,8 km/h (1 Bft) S-SW 202 0 min 0 UV-I 9 W/m 11,3 km/h (2 Bft)
02.05.2010 17:00 10,7 C 88 % 1005,8 hPa 4,8 mm 1,6 km/h (1 Bft) SW 225 0 min 0 UV-I 28 W/m 6,4 km/h (2 Bft)
02.05.2010 17:10 10,3 C 90 % 1005,0 hPa 0,3 mm 0,0 km/h (0 Bft) S-SW 202 0 min 0 UV-I 62 W/m 1,6 km/h (1 Bft)
02.05.2010 17:20 10,4 C 91 % 1004,4 hPa 0,0 mm 0,0 km/h (0 Bft) O 90 0 min 0 UV-I 62 W/m 4,8 km/h (1 Bft)
02.05.2010 17:30 10,4 C 91 % 1004,4 hPa 0,0 mm 1,6 km/h (1 Bft) O 90 0 min 0 UV-I 62 W/m 6,4 km/h (2 Bft)
02.05.2010 17:40 10,4 C 91 % 1004,4 hPa 0,0 mm 3,2 km/h (1 Bft) O 90 0 min 0 UV-I 62 W/m 8,0 km/h (2 Bft)
02.05.2010 17:50 10,3 C 91 % 1004,3 hPa 0,0 mm 1,6 km/h (1 Bft) O 90 0 min 0 UV-I 37 W/m 4,8 km/h (1 Bft)
02.05.2010 18:00 10,2 C 91 % 1004,2 hPa 0,0 mm 1,6 km/h (1 Bft) O 90 0 min 0 UV-I 39 W/m 6,4 km/h (2 Bft)
02.05.2010 18:10 10,3 C 92 % 1004,3 hPa 0,0 mm 1,6 km/h (1 Bft) O 90 0 min 0 UV-I 35 W/m 8,0 km/h (2 Bft)
02.05.2010 18:20 10,3 C 92 % 1004,5 hPa 0,0 mm 3,2 km/h (1 Bft) O 90 0 min 0 UV-I 44 W/m 6,4 km/h (2 Bft)
02.05.2010 18:30 10,4 C 92 % 1004,6 hPa 0,3 mm 3,1 km/h (1 Bft) O-SO 103 0 min 0 UV-I 43 W/m 6,4 km/h (2 Bft)
02.05.2010 18:40 10,4 C 92 % 1004,8 hPa 0,0 mm 1,6 km/h (1 Bft) O 90 0 min 0 UV-I 40 W/m 6,4 km/h (2 Bft)
02.05.2010 18:50 10,5 C 92 % 1004,9 hPa 0,0 mm 1,6 km/h (1 Bft) O-NO 67 0 min 0 UV-I 18 W/m 8,0 km/h (2 Bft)
02.05.2010 19:00 10,6 C 92 % 1005,0 hPa 0,0 mm 1,6 km/h (1 Bft) O 90 0 min 0 UV-I 12 W/m 6,4 km/h (2 Bft)
02.05.2010 19:10 10,6 C 92 % 1005,2 hPa 0,0 mm 1,6 km/h (1 Bft) O-SO 112 0 min 0 UV-I 12 W/m 8,0 km/h (2 Bft)
02.05.2010 19:20 10,6 C 92 % 1005,3 hPa 0,0 mm 0,0 km/h (0 Bft) O-SO 112 0 min 0 UV-I 14 W/m 3,2 km/h (1 Bft)
02.05.2010 19:30 10,6 C 92 % 1005,4 hPa 0,5 mm 1,6 km/h (1 Bft) O-SO 112 0 min 0 UV-I 16 W/m 6,4 km/h (2 Bft)
02.05.2010 19:40 10,7 C 92 % 1005,6 hPa 0,0 mm 4,8 km/h (1 Bft) O-SO 112 0 min 0 UV-I 21 W/m 9,7 km/h (2 Bft)
02.05.2010 19:50 10,6 C 92 % 1005,8 hPa 0,3 mm 6,4 km/h (2 Bft) O-SO 112 0 min 0 UV-I 21 W/m 11,3 km/h (2 Bft)
02.05.2010 20:00 10,6 C 92 % 1005,9 hPa 0,0 mm 3,2 km/h (1 Bft) O 90 0 min 0 UV-I 12 W/m 6,4 km/h (2 Bft)
02.05.2010 20:10 10,7 C 92 % 1006,0 hPa 0,0 mm 1,6 km/h (1 Bft) O-SO 112 0 min 0 UV-I 12 W/m 8,0 km/h (2 Bft)
02.05.2010 20:20 10,7 C 92 % 1006,1 hPa 0,0 mm 1,6 km/h (1 Bft) W-SW 247 0 min 0 UV-I 12 W/m 8,0 km/h (2 Bft)
02.05.2010 20:30 10,7 C 91 % 1006,2 hPa 0,5 mm 3,2 km/h (1 Bft) W-SW 247 0 min 0 UV-I 0 W/m 14,5 km/h (3 Bft)
02.05.2010 20:40 10,6 C 90 % 1006,2 hPa 0,3 mm 3,2 km/h (1 Bft) W-SW 247 0 min 0 UV-I 0 W/m 11,3 km/h (2 Bft)
02.05.2010 20:50 10,3 C 89 % 1006,4 hPa 0,0 mm 3,2 km/h (1 Bft) W-SW 247 0 min 0 UV-I 0 W/m 11,3 km/h (2 Bft)
02.05.2010 21:00 10,0 C 89 % 1006,6 hPa 0,0 mm 1,6 km/h (1 Bft) W-SW 247 0 min 0 UV-I 0 W/m 9,7 km/h (2 Bft)
02.05.2010 21:10 9,8 C 90 % 1006,7 hPa 0,0 mm 1,6 km/h (1 Bft) SW 225 0 min 0 UV-I 0 W/m 9,7 km/h (2 Bft)
02.05.2010 21:20 9,8 C 91 % 1006,3 hPa 0,0 mm 0,0 km/h (0 Bft) W-SW 247 0 min 0 UV-I 0 W/m 4,8 km/h (1 Bft)
02.05.2010 21:30 9,8 C 91 % 1006,0 hPa 0,3 mm 0,0 km/h (0 Bft) W-SW 247 0 min 0 UV-I 0 W/m 1,6 km/h (1 Bft)
02.05.2010 21:40 9,8 C 91 % 1005,5 hPa 0,0 mm 0,0 km/h (0 Bft) W-SW 247 0 min 0 UV-I 0 W/m 1,6 km/h (1 Bft)
02.05.2010 21:50 9,8 C 92 % 1005,3 hPa 0,0 mm 0,0 km/h (0 Bft) S-SO 157 0 min 0 UV-I 0 W/m 3,2 km/h (1 Bft)
02.05.2010 22:00 9,7 C 92 % 1005,2 hPa 0,0 mm 1,6 km/h (1 Bft) O-SO 112 0 min 0 UV-I 0 W/m 4,8 km/h (1 Bft)
02.05.2010 22:10 9,6 C 92 % 1005,0 hPa 0,0 mm 3,2 km/h (1 Bft) O-SO 112 0 min 0 UV-I 0 W/m 6,4 km/h (2 Bft)
02.05.2010 22:20 9,6 C 92 % 1004,5 hPa 0,0 mm 1,6 km/h (1 Bft) O-SO 112 0 min 0 UV-I 0 W/m 6,4 km/h (2 Bft)
02.05.2010 22:30 9,6 C 93 % 1004,6 hPa 0,0 mm 0,0 km/h (0 Bft) O-SO 112 0 min 0 UV-I 0 W/m 1,6 km/h (1 Bft)
02.05.2010 22:40 9,6 C 92 % 1004,8 hPa 0,0 mm 0,0 km/h (0 Bft) O-SO 112 0 min 0 UV-I 0 W/m 3,2 km/h (1 Bft)
02.05.2010 22:50 9,5 C 93 % 1005,0 hPa 0,3 mm 0,0 km/h (0 Bft) O-SO 112 0 min 0 UV-I 0 W/m 1,6 km/h (1 Bft)
02.05.2010 23:00 9,3 C 93 % 1005,1 hPa 0,0 mm 0,0 km/h (0 Bft) O-SO 112 0 min 0 UV-I 0 W/m 3,2 km/h (1 Bft)
02.05.2010 23:10 9,3 C 93 % 1005,2 hPa 0,0 mm 0,0 km/h (0 Bft) N 0 0 min 0 UV-I 0 W/m 0,0 km/h (0 Bft)
02.05.2010 23:20 9,1 C 93 % 1005,4 hPa 0,0 mm 0,0 km/h (0 Bft) N 0 0 min 0 UV-I 0 W/m 0,0 km/h (0 Bft)
02.05.2010 23:30 9,1 C 93 % 1005,5 hPa 0,0 mm 0,0 km/h (0 Bft) N 0 0 min 0 UV-I 0 W/m 0,0 km/h (0 Bft)
02.05.2010 23:40 9,1 C 93 % 1005,6 hPa 0,0 mm 0,0 km/h (0 Bft) N 0 0 min 0 UV-I 0 W/m 0,0 km/h (0 Bft)
02.05.2010 23:50 9,2 C 93 % 1005,7 hPa 0,0 mm 0,0 km/h (0 Bft) N 0 0 min 0 UV-I 0 W/m 0,0 km/h (0 Bft)
_ Min-Zeit 05:10 13:10 13:50 - 00:00 - - - - - 01:10
Minimum _ 8,6 C 62 % 999,6 hPa - 0,0 km/h (0 Bft) - - - - - 0,0 km/h (0 Bft)
_ Max-Zeit 13:10 22:30 02:00 17:00 12:50 - - 08:40 12:30 12:30 14:30
Maximum _ 17,3 C 93 % 1010,4 hPa 4,8 mm 6,6 km/h
O (2 Bft)
- - 10 min 6 UV-I 1114 W/m 32,2 km/h
S-SW (5 Bft)
Durchschnitt _ 11,2 C 83 % 1007,7 hPa #16,0 mm 2,0 km/h (1 Bft) O - #3:50 h 2 UV-I 226 W/m 6,5 km/h (2 Bft)